createdAt,value
2018-09-13T00:00:33.943Z,900.00
2018-09-13T00:01:33.964Z,835.00
2018-09-13T00:02:33.976Z,830.40
2018-09-13T00:03:34.023Z,834.50
2018-09-13T00:04:34.060Z,828.00
2018-09-13T00:05:34.403Z,864.50
2018-09-13T00:06:34.273Z,891.50
2018-09-13T00:07:34.211Z,850.20
2018-09-13T00:08:34.221Z,825.90
2018-09-13T00:09:34.309Z,821.30
2018-09-13T00:10:34.309Z,823.90
2018-09-13T00:11:34.658Z,807.20
2018-09-13T00:12:34.559Z,824.10
2018-09-13T00:13:34.452Z,829.10
2018-09-13T00:14:34.492Z,798.80
2018-09-13T00:15:34.587Z,891.80
2018-09-13T00:16:34.587Z,842.40
2018-09-13T00:17:34.937Z,823.80
2018-09-13T00:18:34.684Z,831.00
2018-09-13T00:19:34.730Z,824.40
2018-09-13T00:20:34.956Z,832.00
2018-09-13T00:21:34.788Z,811.20
2018-09-13T00:22:35.002Z,832.50
2018-09-13T00:23:34.878Z,810.60
2018-09-13T00:24:34.924Z,881.00
2018-09-13T00:25:34.976Z,811.20
2018-09-13T00:26:35.007Z,826.90
2018-09-13T00:27:35.258Z,935.80
2018-09-13T00:28:35.114Z,811.60
2018-09-13T00:29:35.184Z,798.60
2018-09-13T00:30:35.192Z,812.80
2018-09-13T00:31:35.244Z,814.60
2018-09-13T00:32:35.279Z,832.90
2018-09-13T00:33:35.626Z,941.80
2018-09-13T00:34:35.501Z,830.00
2018-09-13T00:35:35.415Z,817.90
2018-09-13T00:36:35.459Z,830.00
2018-09-13T00:37:35.485Z,795.50
2018-09-13T00:38:35.511Z,815.80
2018-09-13T00:39:35.584Z,841.10
2018-09-13T00:40:35.903Z,860.60
2018-09-13T00:41:35.664Z,958.60
2018-09-13T00:42:35.707Z,947.90
2018-09-13T00:43:35.736Z,833.00
2018-09-13T00:44:35.803Z,844.20
2018-09-13T00:45:35.841Z,831.50
2018-09-13T00:46:36.020Z,818.20
2018-09-13T00:47:36.220Z,820.10
2018-09-13T00:48:35.966Z,839.40
2018-09-13T00:49:36.020Z,831.80
2018-09-13T00:50:36.049Z,832.30
2018-09-13T00:51:36.101Z,831.00
2018-09-13T00:52:36.294Z,831.40
2018-09-13T00:53:36.188Z,809.90
2018-09-13T00:54:36.257Z,810.70
2018-09-13T00:55:36.268Z,903.60
2018-09-13T00:56:36.356Z,874.60
2018-09-13T00:57:36.728Z,838.40
2018-09-13T00:58:36.568Z,826.30
2018-09-13T00:59:36.454Z,841.30
2018-09-13T01:00:36.488Z,868.00
2018-09-13T01:01:36.536Z,837.70
2018-09-13T01:02:36.577Z,908.10
2018-09-13T01:03:36.869Z,841.10
2018-09-13T01:04:36.650Z,945.40
2018-09-13T01:05:36.697Z,864.90
2018-09-13T01:06:36.742Z,882.40
2018-09-13T01:07:36.794Z,873.50
2018-09-13T01:08:36.833Z,858.10
2018-09-13T01:09:37.062Z,846.00
2018-09-13T01:10:36.887Z,893.80
2018-09-13T01:11:36.940Z,856.90
2018-09-13T01:12:37.001Z,858.20
2018-09-13T01:13:37.034Z,862.30
2018-09-13T01:14:37.377Z,870.40
2018-09-13T01:15:37.303Z,967.50
2018-09-13T01:16:37.154Z,869.80
2018-09-13T01:17:37.220Z,912.40
2018-09-13T01:19:10.480Z,858.60
2018-09-13T01:19:37.295Z,870.20
2018-09-13T01:20:37.647Z,878.70
2018-09-13T01:21:37.578Z,860.40
2018-09-13T01:22:37.448Z,865.70
2018-09-13T01:23:37.493Z,877.50
2018-09-13T01:24:37.524Z,910.30
2018-09-13T01:25:37.563Z,853.90
2018-09-13T01:26:37.893Z,860.30
2018-09-13T01:27:37.786Z,876.00
2018-09-13T01:28:37.697Z,882.50
2018-09-13T01:29:37.710Z,860.80
2018-09-13T01:30:37.774Z,852.10
2018-09-13T01:31:37.829Z,862.30
2018-09-13T01:32:38.154Z,879.80
2018-09-13T01:34:11.117Z,999.90
2018-09-13T01:34:37.956Z,868.60
2018-09-13T01:35:37.993Z,866.50
2018-09-13T01:36:38.021Z,931.50
2018-09-13T01:37:38.079Z,845.10
2018-09-13T01:38:39.933Z,879.60
2018-09-13T01:39:38.313Z,803.80
2018-09-13T01:40:38.180Z,800.50
2018-09-13T01:41:38.244Z,805.80
2018-09-13T01:42:38.277Z,791.30
2018-09-13T01:43:38.316Z,800.90
2018-09-13T01:44:38.656Z,780.80
2018-09-13T01:45:38.604Z,823.30
2018-09-13T01:46:38.448Z,804.90
2018-09-13T01:47:38.473Z,787.40
2018-09-13T01:48:38.512Z,795.10
2018-09-13T01:49:38.574Z,823.10
2018-09-13T01:50:38.910Z,852.50
2018-09-13T01:51:38.752Z,790.30
2018-09-13T01:52:38.689Z,787.20
2018-09-13T01:53:38.753Z,792.30
2018-09-13T01:54:38.769Z,831.30
2018-09-13T01:55:38.803Z,914.00
2018-09-13T01:56:39.089Z,826.20
2018-09-13T01:57:38.894Z,813.10
2018-09-13T01:58:38.934Z,784.70
2018-09-13T01:59:38.997Z,801.20
2018-09-13T02:00:39.008Z,803.60
2018-09-13T02:01:39.163Z,810.00
2018-09-13T02:02:39.383Z,785.80
2018-09-13T02:03:39.138Z,795.70
2018-09-13T02:04:39.204Z,800.90
2018-09-13T02:05:39.236Z,789.20
2018-09-13T02:06:39.281Z,839.30
2018-09-13T02:07:39.439Z,797.30
2018-09-13T02:08:39.432Z,816.90
2018-09-13T02:09:39.424Z,818.40
2018-09-13T02:10:39.463Z,822.50
2018-09-13T02:11:39.499Z,821.10
2018-09-13T02:12:39.546Z,806.80
2018-09-13T02:13:39.728Z,843.30
2018-09-13T02:14:39.638Z,807.60
2018-09-13T02:15:39.698Z,863.00
2018-09-13T02:16:39.713Z,818.00
2018-09-13T02:17:39.755Z,863.70
2018-09-13T02:18:39.812Z,945.40
2018-09-13T02:19:39.861Z,460.20
2018-09-13T02:20:39.896Z,480.30
2018-09-13T02:21:39.932Z,529.00
2018-09-13T02:22:39.960Z,420.90
2018-09-13T02:23:40.254Z,442.70
2018-09-13T02:24:40.159Z,444.70
2018-09-13T02:25:40.107Z,464.00
2018-09-13T02:26:40.144Z,454.10
2018-09-13T02:27:40.192Z,429.20
2018-09-13T02:28:40.242Z,445.90
2018-09-13T02:29:40.497Z,524.40
2018-09-13T02:30:40.404Z,424.00
2018-09-13T02:31:40.340Z,508.90
2018-09-13T02:32:40.392Z,432.20
2018-09-13T02:33:40.438Z,474.30
2018-09-13T02:34:40.494Z,482.10
2018-09-13T02:35:40.814Z,564.20
2018-09-13T02:36:40.673Z,473.80
2018-09-13T02:37:40.603Z,475.60
2018-09-13T02:38:40.650Z,495.30
2018-09-13T02:39:40.711Z,499.00
2018-09-13T02:40:40.737Z,568.80
2018-09-13T02:41:40.789Z,587.70
2018-09-13T02:42:41.059Z,536.10
2018-09-13T02:43:40.867Z,537.50
2018-09-13T02:44:40.896Z,487.10
2018-09-13T02:45:40.963Z,477.70
2018-09-13T02:46:41.012Z,490.10
2018-09-13T02:47:41.058Z,522.40
2018-09-13T02:48:41.237Z,498.10
2018-09-13T02:49:41.399Z,792.20
2018-09-13T02:50:41.219Z,497.80
2018-09-13T02:51:41.258Z,512.60
2018-09-13T02:52:41.237Z,530.00
2018-09-13T02:53:41.304Z,537.50
2018-09-13T02:54:41.493Z,709.50
2018-09-13T02:55:41.366Z,533.70
2018-09-13T02:56:41.425Z,521.80
2018-09-13T02:57:41.497Z,525.50
2018-09-13T02:58:41.514Z,622.00
2018-09-13T02:59:41.833Z,542.80
2018-09-13T03:00:41.603Z,661.30
2018-09-13T03:01:41.627Z,516.90
2018-09-13T03:02:41.678Z,578.70
2018-09-13T03:03:41.759Z,538.80
2018-09-13T03:04:41.864Z,540.60
2018-09-13T03:05:41.807Z,582.90
2018-09-13T03:06:41.862Z,670.80
2018-09-13T03:07:41.923Z,877.40
2018-09-13T03:08:41.907Z,537.10
2018-09-13T03:09:42.221Z,618.40
2018-09-13T03:10:42.053Z,542.50
2018-09-13T03:11:42.106Z,547.10
2018-09-13T03:12:42.121Z,541.70
2018-09-13T03:13:42.171Z,582.20
2018-09-13T03:14:42.283Z,574.30
2018-09-13T03:15:42.255Z,664.20
2018-09-13T03:16:42.314Z,550.20
2018-09-13T03:17:42.324Z,742.60
2018-09-13T03:18:42.375Z,539.90
2018-09-13T03:19:42.434Z,545.70
2018-09-13T03:20:42.552Z,641.50
2018-09-13T03:21:42.522Z,593.40
2018-09-13T03:22:42.591Z,616.70
2018-09-13T03:23:42.595Z,558.30
2018-09-13T03:24:42.629Z,557.60
2018-09-13T03:25:42.763Z,579.60
2018-09-13T03:26:43.003Z,584.20
2018-09-13T03:27:42.741Z,559.40
2018-09-13T03:28:42.796Z,561.60
2018-09-13T03:29:42.839Z,558.40
2018-09-13T03:30:42.863Z,631.90
2018-09-13T03:31:42.934Z,602.50
2018-09-13T03:32:43.092Z,560.00
2018-09-13T03:33:42.986Z,624.00
2018-09-13T03:34:43.030Z,630.30
2018-09-13T03:35:43.089Z,999.90
2018-09-13T03:36:43.132Z,668.80
2018-09-13T03:37:43.424Z,613.20
2018-09-13T03:38:43.304Z,635.60
2018-09-13T03:39:43.241Z,634.40
2018-09-13T03:40:43.281Z,636.30
2018-09-13T03:41:43.321Z,615.60
2018-09-13T03:42:43.364Z,559.80
2018-09-13T03:43:43.670Z,579.00
2018-09-13T03:44:43.482Z,624.10
2018-09-13T03:45:43.537Z,654.20
2018-09-13T03:46:43.544Z,620.70
2018-09-13T03:47:43.603Z,582.90
2018-09-13T03:48:43.742Z,574.50
2018-09-13T03:49:43.667Z,610.80
2018-09-13T03:50:43.709Z,566.00
2018-09-13T03:51:43.757Z,564.70
2018-09-13T03:52:43.861Z,553.90
2018-09-13T03:53:44.110Z,576.40
2018-09-13T03:54:43.894Z,580.50
2018-09-13T03:55:43.947Z,554.50
2018-09-13T03:56:43.974Z,550.90
2018-09-13T03:57:44.035Z,553.40
2018-09-13T03:58:44.450Z,551.10
2018-09-13T03:59:44.095Z,560.60
2018-09-13T04:00:44.150Z,538.20
2018-09-13T04:01:44.180Z,596.70
2018-09-13T04:02:44.223Z,555.40
2018-09-13T04:03:44.258Z,606.90
2018-09-13T04:04:44.563Z,598.20
2018-09-13T04:05:44.352Z,577.30
2018-09-13T04:06:44.403Z,556.60
2018-09-13T04:07:44.449Z,744.10
2018-09-13T04:08:44.493Z,554.30
2018-09-13T04:09:44.668Z,616.10
2018-09-13T04:10:44.580Z,543.20
2018-09-13T04:11:44.604Z,634.30
2018-09-13T04:12:44.659Z,640.30
2018-09-13T04:13:44.695Z,554.10
2018-09-13T04:14:45.003Z,549.10
2018-09-13T04:15:44.823Z,834.60
2018-09-13T04:16:44.824Z,588.10
2018-09-13T04:17:44.906Z,545.40
2018-09-13T04:18:44.986Z,555.90
2018-09-13T04:19:45.058Z,627.60
2018-09-13T04:20:45.016Z,547.50
2018-09-13T04:21:45.032Z,554.70
2018-09-13T04:22:45.122Z,570.60
2018-09-13T04:23:45.137Z,623.40
2018-09-13T04:24:45.413Z,753.60
2018-09-13T04:25:45.261Z,686.20
2018-09-13T04:26:45.238Z,821.10
2018-09-13T04:27:45.300Z,774.90
2018-09-13T04:28:45.336Z,783.20
2018-09-13T04:29:45.496Z,697.00
2018-09-13T04:30:45.679Z,798.70
2018-09-13T04:31:45.480Z,831.30
2018-09-13T04:32:45.524Z,784.70
2018-09-13T04:33:45.571Z,564.90
2018-09-13T04:34:45.610Z,782.60
2018-09-13T04:35:46.093Z,680.80
2018-09-13T04:36:45.786Z,678.70
2018-09-13T04:37:45.716Z,583.00
2018-09-13T04:38:45.765Z,581.20
2018-09-13T04:39:45.853Z,567.50
2018-09-13T04:40:45.846Z,591.70
2018-09-13T04:41:46.150Z,576.80
2018-09-13T04:42:45.922Z,617.50
2018-09-13T04:43:45.975Z,557.10
2018-09-13T04:44:46.025Z,624.80
2018-09-13T04:45:46.084Z,696.40
2018-09-13T04:46:46.197Z,665.60
2018-09-13T04:47:46.554Z,900.10
2018-09-13T04:48:46.202Z,648.40
2018-09-13T04:49:46.249Z,807.40
2018-09-13T04:50:46.269Z,589.10
2018-09-13T04:51:46.301Z,639.80
2018-09-13T04:52:46.405Z,746.10
2018-09-13T04:53:46.631Z,591.30
2018-09-13T04:54:46.545Z,612.70
2018-09-13T04:55:46.495Z,802.00
2018-09-13T04:56:46.538Z,583.40
2018-09-13T04:57:46.562Z,622.60
2018-09-13T04:58:46.616Z,595.70
2018-09-13T04:59:47.208Z,734.30
2018-09-13T05:00:46.943Z,674.90
2018-09-13T05:01:46.739Z,584.80
2018-09-13T05:02:46.846Z,585.10
2018-09-13T05:03:46.826Z,654.70
2018-09-13T05:04:46.887Z,699.00
2018-09-13T05:05:47.212Z,596.60
2018-09-13T05:06:46.941Z,743.70
2018-09-13T05:07:46.978Z,615.70
2018-09-13T05:08:47.035Z,630.10
2018-09-13T05:09:47.072Z,729.30
2018-09-13T05:10:47.376Z,605.50
2018-09-13T05:11:47.213Z,620.10
2018-09-13T05:12:47.289Z,737.90
2018-09-13T05:13:47.256Z,935.30
2018-09-13T05:14:47.282Z,685.30
2018-09-13T05:15:47.426Z,688.10
2018-09-13T05:16:47.767Z,610.40
2018-09-13T05:17:47.401Z,657.40
2018-09-13T05:18:47.495Z,607.50
2018-09-13T05:19:47.522Z,711.20
2018-09-13T05:20:47.545Z,743.00
2018-09-13T05:21:47.675Z,711.30
2018-09-13T05:22:47.637Z,966.40
2018-09-13T05:23:47.677Z,999.90
2018-09-13T05:24:47.701Z,767.20
2018-09-13T05:25:47.764Z,786.20
2018-09-13T05:26:47.807Z,832.10
2018-09-13T05:27:48.100Z,675.60
2018-09-13T05:28:47.880Z,705.10
2018-09-13T05:29:47.973Z,683.30
2018-09-13T05:30:47.957Z,674.20
2018-09-13T05:31:48.142Z,656.10
2018-09-13T05:32:48.135Z,960.60
2018-09-13T05:33:48.119Z,712.90
2018-09-13T05:34:48.126Z,674.20
2018-09-13T05:35:48.165Z,879.30
2018-09-13T05:36:48.234Z,686.80
2018-09-13T05:37:48.521Z,689.50
2018-09-13T05:38:48.651Z,736.10
2018-09-13T05:39:48.391Z,749.30
2018-09-13T05:40:48.396Z,715.90
2018-09-13T05:41:48.442Z,692.00
2018-09-13T05:42:48.554Z,745.40
2018-09-13T05:43:48.523Z,693.10
2018-09-13T05:44:48.715Z,971.20
2018-09-13T05:45:48.604Z,843.70
2018-09-13T05:46:48.633Z,999.90
2018-09-13T05:47:48.686Z,734.10
2018-09-13T05:48:48.733Z,777.90
2018-09-13T05:49:49.022Z,719.80
2018-09-13T05:50:48.900Z,783.90
2018-09-13T05:51:48.857Z,709.90
2018-09-13T05:52:48.892Z,743.30
2018-09-13T05:53:48.925Z,703.50
2018-09-13T05:54:49.005Z,725.80
2018-09-13T05:55:49.041Z,687.70
2018-09-13T05:56:49.304Z,689.30
2018-09-13T05:57:49.114Z,707.50
2018-09-13T05:58:49.193Z,699.60
2018-09-13T05:59:49.196Z,727.90
2018-09-13T06:00:49.214Z,767.50
2018-09-13T06:01:49.353Z,682.10
2018-09-13T06:02:49.613Z,735.20
2018-09-13T06:03:49.353Z,742.80
2018-09-13T06:04:49.379Z,749.80
2018-09-13T06:05:49.438Z,684.10
2018-09-13T06:06:49.481Z,707.60
2018-09-13T06:07:49.531Z,719.50
2018-09-13T06:08:49.671Z,693.70
2018-09-13T06:09:49.911Z,780.50
2018-09-13T06:10:49.715Z,721.00
2018-09-13T06:11:49.697Z,694.40
2018-09-13T06:12:49.717Z,695.90
2018-09-13T06:13:49.795Z,879.30
2018-09-13T06:14:50.123Z,704.30
2018-09-13T06:15:49.956Z,777.00
2018-09-13T06:16:49.892Z,677.70
2018-09-13T06:17:49.961Z,711.60
2018-09-13T06:18:49.998Z,765.10
2018-09-13T06:19:50.073Z,705.50
2018-09-13T06:20:50.329Z,685.50
2018-09-13T06:21:50.393Z,947.30
2018-09-13T06:22:50.171Z,829.20
2018-09-13T06:23:50.217Z,932.90
2018-09-13T06:24:50.239Z,974.70
2018-09-13T06:25:50.290Z,852.50
2018-09-13T06:26:50.464Z,733.20
2018-09-13T06:27:50.613Z,707.60
2018-09-13T06:28:50.403Z,889.50
2018-09-13T06:29:50.445Z,734.80
2018-09-13T06:30:50.487Z,751.10
2018-09-13T06:31:50.525Z,798.20
2018-09-13T06:32:50.559Z,877.90
2018-09-13T06:33:50.964Z,746.60
2018-09-13T06:34:50.638Z,652.20
2018-09-13T06:35:50.713Z,712.90
2018-09-13T06:36:50.744Z,760.50
2018-09-13T06:37:50.807Z,706.10
2018-09-13T06:38:50.941Z,680.80
2018-09-13T06:39:51.115Z,781.80
2018-09-13T06:40:50.959Z,993.70
2018-09-13T06:41:50.973Z,819.00
2018-09-13T06:42:51.008Z,789.00
2018-09-13T06:43:51.050Z,999.90
2018-09-13T06:44:51.094Z,824.60
2018-09-13T06:45:51.232Z,677.40
2018-09-13T06:46:51.187Z,632.10
2018-09-13T06:47:51.222Z,616.00
2018-09-13T06:48:51.268Z,804.20
2018-09-13T06:49:51.303Z,999.90
2018-09-13T06:50:51.593Z,999.90
2018-09-13T06:51:51.392Z,949.80
2018-09-13T06:52:51.436Z,923.60
2018-09-13T06:53:51.517Z,918.50
2018-09-13T06:54:51.515Z,913.70
2018-09-13T06:55:51.638Z,874.90
2018-09-13T06:56:51.878Z,865.70
2018-09-13T06:57:51.632Z,882.80
2018-09-13T06:58:51.670Z,877.50
2018-09-13T06:59:51.711Z,999.90
2018-09-13T07:00:51.811Z,961.90
2018-09-13T07:01:51.909Z,965.90
2018-09-13T07:02:51.831Z,999.90
2018-09-13T07:03:51.884Z,878.90
2018-09-13T07:04:51.937Z,985.80
2018-09-13T07:05:51.978Z,898.80
2018-09-13T07:06:52.267Z,737.70
2018-09-13T07:07:52.082Z,759.90
2018-09-13T07:08:52.120Z,810.80
2018-09-13T07:09:52.148Z,786.90
2018-09-13T07:10:52.162Z,722.00
2018-09-13T07:11:52.327Z,709.90
2018-09-13T07:12:52.275Z,730.80
2018-09-13T07:13:52.356Z,707.00
2018-09-13T07:14:52.357Z,703.90
2018-09-13T07:15:52.393Z,731.90
2018-09-13T07:16:52.430Z,673.50
2018-09-13T07:17:52.792Z,693.10
2018-09-13T07:18:52.515Z,690.80
2018-09-13T07:19:52.568Z,750.90
2018-09-13T07:20:52.613Z,833.60
2018-09-13T07:21:52.676Z,781.80
2018-09-13T07:22:52.735Z,818.00
2018-09-13T07:23:52.815Z,753.70
2018-09-13T07:24:52.835Z,768.30
2018-09-13T07:25:52.806Z,753.40
2018-09-13T07:26:52.900Z,999.90
2018-09-13T07:27:52.880Z,757.40
2018-09-13T07:28:53.203Z,729.50
2018-09-13T07:29:53.291Z,718.60
2018-09-13T07:30:53.079Z,799.20
2018-09-13T07:31:53.056Z,713.80
2018-09-13T07:32:53.106Z,714.00
2018-09-13T07:33:53.172Z,727.20
2018-09-13T07:34:53.299Z,737.60
2018-09-13T07:35:53.248Z,707.70
2018-09-13T07:36:53.343Z,711.40
2018-09-13T07:37:53.329Z,712.60
2018-09-13T07:38:53.363Z,816.60
2018-09-13T07:39:53.658Z,777.20
2018-09-13T07:40:53.793Z,724.10
2018-09-13T07:41:53.462Z,726.20
2018-09-13T07:42:53.640Z,731.10
2018-09-13T07:43:53.589Z,731.40
2018-09-13T07:44:53.603Z,710.60
2018-09-13T07:45:53.769Z,734.00
2018-09-13T07:46:53.932Z,776.60
2018-09-13T07:47:53.757Z,720.80
2018-09-13T07:48:53.800Z,739.00
2018-09-13T07:49:54.053Z,848.90
2018-09-13T07:50:53.857Z,838.80
2018-09-13T07:51:54.206Z,841.00
2018-09-13T07:52:53.939Z,844.10
2018-09-13T07:53:53.976Z,794.20
2018-09-13T07:54:54.018Z,917.00
2018-09-13T07:55:54.072Z,896.20
2018-09-13T07:56:54.235Z,840.00
2018-09-13T07:57:54.168Z,934.00
2018-09-13T07:58:54.194Z,813.60
2018-09-13T07:59:54.263Z,854.90
2018-09-13T08:00:54.273Z,845.00
2018-09-13T08:01:54.581Z,845.80
2018-09-13T08:02:54.374Z,814.50
2018-09-13T08:03:54.425Z,781.90
2018-09-13T08:04:54.486Z,863.60
2018-09-13T08:05:54.487Z,893.70
2018-09-13T08:06:54.784Z,915.40
2018-09-13T08:07:54.625Z,726.70
2018-09-13T08:08:54.664Z,761.30
2018-09-13T08:09:54.669Z,863.70
2018-09-13T08:10:54.701Z,928.30
2018-09-13T08:11:54.923Z,864.60
2018-09-13T08:12:55.112Z,793.70
2018-09-13T08:13:54.829Z,842.60
2018-09-13T08:14:54.881Z,894.70
2018-09-13T08:15:54.973Z,885.90
2018-09-13T08:16:54.977Z,884.20
2018-09-13T08:17:55.274Z,846.50
2018-09-13T08:18:55.150Z,836.30
2018-09-13T08:19:55.098Z,842.00
2018-09-13T08:20:55.120Z,933.20
2018-09-13T08:21:55.211Z,955.10
2018-09-13T08:22:55.255Z,999.90
2018-09-13T08:23:55.507Z,957.60
2018-09-13T08:24:55.402Z,870.40
2018-09-13T08:25:55.341Z,820.40
2018-09-13T08:26:55.415Z,917.40
2018-09-13T08:27:55.432Z,930.40
2018-09-13T08:28:55.475Z,880.20
2018-09-13T08:29:55.763Z,859.50
2018-09-13T08:30:55.683Z,886.00
2018-09-13T08:31:55.606Z,887.60
2018-09-13T08:32:55.639Z,977.70
2018-09-13T08:33:55.678Z,862.70
2018-09-13T08:34:55.919Z,938.30
2018-09-13T08:35:56.028Z,932.50
2018-09-13T08:36:55.850Z,961.50
2018-09-13T08:37:55.855Z,903.50
2018-09-13T08:38:55.887Z,104.20
2018-09-13T08:39:55.989Z,66.80
2018-09-13T08:40:55.980Z,12.40
2018-09-13T08:41:56.284Z,155.20
2018-09-13T08:42:56.232Z,11.50
2018-09-13T08:43:56.148Z,12.20
2018-09-13T08:44:56.124Z,12.20
2018-09-13T08:45:56.187Z,12.10
2018-09-13T08:46:56.218Z,12.00
2018-09-13T08:47:56.566Z,12.30
2018-09-13T08:48:56.397Z,12.40
2018-09-13T08:49:56.361Z,12.10
2018-09-13T08:50:56.414Z,12.00
2018-09-13T08:51:56.484Z,11.90
2018-09-13T08:52:56.477Z,11.90
2018-09-13T08:53:56.792Z,12.00
2018-09-13T08:54:56.873Z,12.90
2018-09-13T08:55:56.657Z,11.60
2018-09-13T08:56:56.699Z,12.20
2018-09-13T08:57:56.691Z,11.70
2018-09-13T08:58:56.733Z,11.90
2018-09-13T08:59:56.894Z,11.80
2018-09-13T09:00:56.832Z,12.30
2018-09-13T09:01:56.838Z,11.70
2018-09-13T09:02:56.906Z,11.60
2018-09-13T09:03:56.939Z,11.60
2018-09-13T09:04:56.995Z,11.80
2018-09-13T09:05:57.321Z,12.70
2018-09-13T09:06:57.180Z,12.20
2018-09-13T09:07:57.124Z,11.90
2018-09-13T09:08:57.158Z,13.10
2018-09-13T09:09:57.224Z,12.60
2018-09-13T09:10:57.292Z,12.60
2018-09-13T09:11:57.654Z,12.50
2018-09-13T09:12:57.603Z,13.00
2018-09-13T09:13:57.340Z,12.50
2018-09-13T09:14:57.422Z,12.10
2018-09-13T09:15:57.431Z,12.50
2018-09-13T09:16:57.477Z,12.70
2018-09-13T09:17:57.639Z,13.00
2018-09-13T09:18:57.812Z,12.60
2018-09-13T09:19:57.620Z,12.10
2018-09-13T09:20:57.651Z,12.80
2018-09-13T09:21:57.704Z,11.50
2018-09-13T09:22:57.739Z,12.70
2018-09-13T09:23:58.049Z,12.80
2018-09-13T09:24:57.836Z,12.80
2018-09-13T09:25:57.861Z,12.80
2018-09-13T09:26:57.896Z,12.80
2018-09-13T09:27:57.956Z,12.80
2018-09-13T09:28:58.102Z,13.20
2018-09-13T09:29:58.212Z,12.00
2018-09-13T09:30:58.086Z,13.00
2018-09-13T09:31:58.120Z,12.80
2018-09-13T09:32:58.176Z,12.40
2018-09-13T09:33:58.220Z,13.60
2018-09-13T09:34:58.598Z,12.50
2018-09-13T09:35:58.549Z,13.10
2018-09-13T09:36:58.342Z,13.20
2018-09-13T09:37:58.396Z,13.20
2018-09-13T09:38:58.428Z,13.10
2018-09-13T09:39:58.524Z,13.00
2018-09-13T09:40:58.614Z,13.40
2018-09-13T09:41:58.812Z,12.50
2018-09-13T09:42:58.590Z,13.20
2018-09-13T09:43:58.614Z,13.20
2018-09-13T09:44:58.666Z,13.00
2018-09-13T09:45:58.704Z,13.00
2018-09-13T09:46:58.854Z,13.90
2018-09-13T09:47:59.141Z,13.20
2018-09-13T09:48:58.839Z,13.10
2018-09-13T09:49:58.886Z,13.40
2018-09-13T09:50:58.945Z,13.30
2018-09-13T09:51:59.047Z,13.60
2018-09-13T09:52:59.115Z,13.60
2018-09-13T09:53:59.103Z,12.80
2018-09-13T09:54:59.083Z,13.90
2018-09-13T09:55:59.215Z,13.00
2018-09-13T09:56:59.169Z,13.60
2018-09-13T09:57:59.567Z,14.30
2018-09-13T09:58:59.277Z,13.70
2018-09-13T09:59:59.320Z,14.30
2018-09-13T10:00:59.349Z,14.20
2018-09-13T10:01:59.402Z,14.20
2018-09-13T10:02:59.595Z,14.50
2018-09-13T10:03:59.490Z,12.90
2018-09-13T10:04:59.531Z,14.80
2018-09-13T10:05:59.594Z,14.30
2018-09-13T10:06:59.616Z,15.30
2018-09-13T10:07:59.735Z,14.70
2018-09-13T10:08:59.717Z,15.40
2018-09-13T10:09:59.755Z,15.10
2018-09-13T10:10:59.792Z,15.20
2018-09-13T10:11:59.860Z,15.40
2018-09-13T10:13:00.116Z,15.60
2018-09-13T10:14:00.032Z,15.70
2018-09-13T10:15:00.016Z,15.70
2018-09-13T10:16:00.061Z,15.50
2018-09-13T10:17:00.050Z,16.00
2018-09-13T10:18:00.096Z,17.10
2018-09-13T10:19:00.394Z,16.70
2018-09-13T10:20:00.257Z,16.70
2018-09-13T10:21:00.230Z,17.00
2018-09-13T10:22:00.263Z,16.80
2018-09-13T10:23:00.311Z,17.20
2018-09-13T10:24:00.329Z,17.60
2018-09-13T10:25:00.374Z,16.70
2018-09-13T10:26:00.445Z,16.50
2018-09-13T10:27:00.549Z,17.40
2018-09-13T10:28:00.519Z,17.30
2018-09-13T10:29:00.548Z,17.40
2018-09-13T10:30:00.760Z,17.00
2018-09-13T10:31:00.688Z,18.00
2018-09-13T10:32:00.673Z,18.10
2018-09-13T10:33:00.788Z,18.50
2018-09-13T10:34:00.789Z,19.50
2018-09-13T10:35:01.132Z,18.40
2018-09-13T10:36:00.974Z,19.10
2018-09-13T10:37:00.901Z,18.70
2018-09-13T10:38:00.962Z,18.80
2018-09-13T10:39:00.987Z,19.20
2018-09-13T10:40:01.045Z,19.20
2018-09-13T10:41:01.321Z,19.50
2018-09-13T10:42:01.206Z,18.70
2018-09-13T10:43:01.151Z,19.40
2018-09-13T10:44:01.225Z,19.70
2018-09-13T10:45:01.252Z,19.20
2018-09-13T10:46:01.292Z,19.40
2018-09-13T10:47:01.427Z,19.50
2018-09-13T10:48:01.386Z,19.20
2018-09-13T10:49:01.429Z,20.40
2018-09-13T10:50:01.489Z,19.90
2018-09-13T10:51:01.504Z,20.00
2018-09-13T10:52:01.583Z,20.30
2018-09-13T10:53:01.682Z,20.50
2018-09-13T10:54:01.627Z,20.90
2018-09-13T10:55:01.683Z,19.90
2018-09-13T10:56:01.731Z,20.30
2018-09-13T10:57:01.750Z,17.10
2018-09-13T10:58:02.074Z,21.30
2018-09-13T10:59:01.894Z,21.70
2018-09-13T11:00:01.900Z,21.10
2018-09-13T11:01:01.960Z,21.50
2018-09-13T11:02:01.997Z,21.20
2018-09-13T11:03:02.146Z,22.40
2018-09-13T11:04:02.105Z,22.30
2018-09-13T11:05:02.128Z,19.80
2018-09-13T11:06:02.183Z,22.50
2018-09-13T11:07:02.226Z,22.50
2018-09-13T11:08:02.350Z,23.30
2018-09-13T11:09:02.318Z,21.70
2018-09-13T11:10:02.338Z,20.90
2018-09-13T11:11:02.600Z,22.70
2018-09-13T11:12:02.433Z,22.70
2018-09-13T11:13:02.460Z,22.90
2018-09-13T11:14:02.512Z,24.30
2018-09-13T11:15:02.553Z,24.00
2018-09-13T11:16:02.673Z,23.80
2018-09-13T11:17:02.643Z,23.90
2018-09-13T11:18:02.700Z,24.00
2018-09-13T11:19:03.053Z,22.90
2018-09-13T11:20:02.792Z,22.90
2018-09-13T11:21:02.841Z,22.50
2018-09-13T11:22:02.871Z,23.50
2018-09-13T11:23:02.917Z,22.10
2018-09-13T11:24:03.038Z,22.90
2018-09-13T11:25:03.049Z,21.50
2018-09-13T11:26:03.027Z,22.50
2018-09-13T11:27:03.084Z,22.30
2018-09-13T11:28:03.189Z,21.20
2018-09-13T11:29:03.306Z,21.20
2018-09-13T11:30:03.231Z,22.20
2018-09-13T11:31:03.275Z,21.60
2018-09-13T11:32:03.350Z,21.10
2018-09-13T11:33:03.353Z,20.60
2018-09-13T11:34:03.390Z,21.20
2018-09-13T11:35:03.441Z,21.30
2018-09-13T11:36:03.471Z,21.00
2018-09-13T11:37:03.521Z,20.90
2018-09-13T11:38:03.577Z,20.10
2018-09-13T11:39:03.733Z,20.70
2018-09-13T11:40:03.710Z,20.60
2018-09-13T11:41:03.869Z,20.70
2018-09-13T11:42:03.774Z,20.90
2018-09-13T11:43:03.814Z,20.70
2018-09-13T11:44:03.857Z,20.50
2018-09-13T11:45:03.892Z,21.10
2018-09-13T11:46:03.982Z,21.70
2018-09-13T11:47:03.979Z,20.20
2018-09-13T11:48:04.030Z,20.00
2018-09-13T11:49:04.149Z,20.60
2018-09-13T11:50:04.129Z,20.10
2018-09-13T11:51:04.163Z,19.30
2018-09-13T11:52:04.208Z,21.20
2018-09-13T11:53:04.259Z,20.50
2018-09-13T11:54:04.345Z,21.20
2018-09-13T11:55:04.348Z,20.30
2018-09-13T11:56:04.396Z,20.60
2018-09-13T11:57:04.421Z,20.20
2018-09-13T11:58:04.493Z,20.70
2018-09-13T11:59:04.784Z,20.90
2018-09-13T12:00:04.563Z,20.90
2018-09-13T12:01:04.640Z,21.20
2018-09-13T12:02:04.775Z,20.90
2018-09-13T12:03:04.709Z,20.40
2018-09-13T12:04:04.749Z,20.60
2018-09-13T12:05:05.049Z,20.90
2018-09-13T12:06:04.841Z,19.20
2018-09-13T12:07:04.879Z,20.60
2018-09-13T12:08:04.918Z,20.40
2018-09-13T12:09:04.963Z,20.30
2018-09-13T12:10:05.100Z,21.40
2018-09-13T12:11:05.063Z,20.80
2018-09-13T12:12:05.112Z,21.70
2018-09-13T12:13:05.155Z,20.50
2018-09-13T12:14:05.214Z,21.60
2018-09-13T12:15:05.362Z,20.90
2018-09-13T12:16:05.305Z,21.00
2018-09-13T12:17:05.391Z,21.30
2018-09-13T12:18:05.414Z,20.90
2018-09-13T12:19:05.414Z,20.70
2018-09-13T12:20:05.466Z,21.00
2018-09-13T12:21:05.625Z,21.40
2018-09-13T12:22:05.566Z,21.30
2018-09-13T12:23:05.606Z,20.50
2018-09-13T12:24:05.646Z,20.70
2018-09-13T12:25:05.750Z,20.80
2018-09-13T12:26:05.910Z,20.70
2018-09-13T12:27:05.810Z,21.60
2018-09-13T12:28:05.834Z,21.70
2018-09-13T12:29:05.898Z,20.90
2018-09-13T12:30:05.982Z,21.40
2018-09-13T12:31:06.125Z,21.20
2018-09-13T12:32:06.031Z,21.60
2018-09-13T12:33:06.096Z,21.70
2018-09-13T12:34:06.143Z,20.60
2018-09-13T12:35:06.178Z,21.20
2018-09-13T12:36:06.310Z,20.80